sensor_id;sensor_type;location;lat;lon;timestamp;P1;durP1;ratioP1;P2;durP2;ratioP2
78484;SDS011;67773;50.806;8.776;2023-03-23T00:02:04;1.33;;;0.70;;
78484;SDS011;67773;50.806;8.776;2023-03-23T00:04:29;2.60;;;1.00;;
78484;SDS011;67773;50.806;8.776;2023-03-23T00:06:55;2.55;;;1.00;;
78484;SDS011;67773;50.806;8.776;2023-03-23T00:09:20;1.87;;;1.00;;
78484;SDS011;67773;50.806;8.776;2023-03-23T00:11:48;2.00;;;0.70;;
78484;SDS011;67773;50.806;8.776;2023-03-23T00:14:15;3.83;;;1.05;;
78484;SDS011;67773;50.806;8.776;2023-03-23T00:16:41;2.17;;;0.80;;
78484;SDS011;67773;50.806;8.776;2023-03-23T00:19:08;1.38;;;0.82;;
78484;SDS011;67773;50.806;8.776;2023-03-23T00:21:38;2.97;;;0.90;;
78484;SDS011;67773;50.806;8.776;2023-03-23T00:24:15;2.53;;;1.10;;
78484;SDS011;67773;50.806;8.776;2023-03-23T00:26:42;1.77;;;0.80;;
78484;SDS011;67773;50.806;8.776;2023-03-23T00:29:19;2.35;;;0.90;;
78484;SDS011;67773;50.806;8.776;2023-03-23T00:31:46;2.17;;;0.95;;
78484;SDS011;67773;50.806;8.776;2023-03-23T00:34:13;1.48;;;0.80;;
78484;SDS011;67773;50.806;8.776;2023-03-23T00:36:44;1.80;;;0.93;;
78484;SDS011;67773;50.806;8.776;2023-03-23T00:39:15;4.63;;;1.00;;
78484;SDS011;67773;50.806;8.776;2023-03-23T00:41:45;3.03;;;0.90;;
78484;SDS011;67773;50.806;8.776;2023-03-23T00:44:11;2.70;;;1.20;;
78484;SDS011;67773;50.806;8.776;2023-03-23T00:46:45;3.42;;;1.00;;
78484;SDS011;67773;50.806;8.776;2023-03-23T00:49:12;1.77;;;1.00;;
78484;SDS011;67773;50.806;8.776;2023-03-23T00:51:38;3.28;;;1.23;;
78484;SDS011;67773;50.806;8.776;2023-03-23T00:54:04;1.77;;;1.08;;
78484;SDS011;67773;50.806;8.776;2023-03-23T00:56:30;3.17;;;0.80;;
78484;SDS011;67773;50.806;8.776;2023-03-23T00:58:55;2.47;;;0.95;;
78484;SDS011;67773;50.806;8.776;2023-03-23T01:01:21;3.97;;;1.20;;
78484;SDS011;67773;50.806;8.776;2023-03-23T01:03:46;2.72;;;0.95;;
78484;SDS011;67773;50.806;8.776;2023-03-23T01:06:12;4.07;;;1.00;;
78484;SDS011;67773;50.806;8.776;2023-03-23T01:08:40;2.05;;;0.98;;
78484;SDS011;67773;50.806;8.776;2023-03-23T01:11:10;1.60;;;0.80;;
78484;SDS011;67773;50.806;8.776;2023-03-23T01:13:38;3.17;;;0.88;;
78484;SDS011;67773;50.806;8.776;2023-03-23T01:16:05;1.70;;;0.90;;
78484;SDS011;67773;50.806;8.776;2023-03-23T01:18:30;2.00;;;0.90;;
78484;SDS011;67773;50.806;8.776;2023-03-23T01:20:56;2.07;;;1.10;;
78484;SDS011;67773;50.806;8.776;2023-03-23T01:23:21;2.07;;;0.97;;
78484;SDS011;67773;50.806;8.776;2023-03-23T01:25:46;2.03;;;0.80;;
78484;SDS011;67773;50.806;8.776;2023-03-23T01:28:12;1.33;;;0.80;;
78484;SDS011;67773;50.806;8.776;2023-03-23T01:30:37;1.90;;;0.80;;
78484;SDS011;67773;50.806;8.776;2023-03-23T01:33:02;1.33;;;0.68;;
78484;SDS011;67773;50.806;8.776;2023-03-23T01:35:28;4.43;;;1.10;;
78484;SDS011;67773;50.806;8.776;2023-03-23T01:37:53;2.07;;;0.90;;
78484;SDS011;67773;50.806;8.776;2023-03-23T01:40:19;2.22;;;0.90;;
78484;SDS011;67773;50.806;8.776;2023-03-23T01:42:45;2.67;;;0.70;;
78484;SDS011;67773;50.806;8.776;2023-03-23T01:47:48;2.35;;;1.00;;
78484;SDS011;67773;50.806;8.776;2023-03-23T01:50:18;1.85;;;0.95;;
78484;SDS011;67773;50.806;8.776;2023-03-23T01:52:48;3.25;;;0.93;;
78484;SDS011;67773;50.806;8.776;2023-03-23T01:55:14;3.40;;;1.13;;
78484;SDS011;67773;50.806;8.776;2023-03-23T01:57:40;4.45;;;1.00;;
78484;SDS011;67773;50.806;8.776;2023-03-23T02:00:07;1.73;;;0.90;;
78484;SDS011;67773;50.806;8.776;2023-03-23T02:02:40;2.30;;;1.02;;
78484;SDS011;67773;50.806;8.776;2023-03-23T02:05:09;3.15;;;0.98;;
78484;SDS011;67773;50.806;8.776;2023-03-23T02:07:38;2.45;;;0.90;;
78484;SDS011;67773;50.806;8.776;2023-03-23T02:10:03;2.27;;;1.00;;
78484;SDS011;67773;50.806;8.776;2023-03-23T02:12:29;1.85;;;1.00;;
78484;SDS011;67773;50.806;8.776;2023-03-23T02:14:55;1.90;;;0.98;;
78484;SDS011;67773;50.806;8.776;2023-03-23T02:17:23;1.02;;;0.70;;
78484;SDS011;67773;50.806;8.776;2023-03-23T02:20:01;2.65;;;0.98;;
78484;SDS011;67773;50.806;8.776;2023-03-23T02:23:08;2.47;;;0.90;;
78484;SDS011;67773;50.806;8.776;2023-03-23T02:34:13;1.90;;;1.00;;
78484;SDS011;67773;50.806;8.776;2023-03-23T02:36:42;1.90;;;1.20;;
78484;SDS011;67773;50.806;8.776;2023-03-23T02:42:19;2.85;;;1.10;;
78484;SDS011;67773;50.806;8.776;2023-03-23T02:44:48;3.97;;;1.20;;
78484;SDS011;67773;50.806;8.776;2023-03-23T02:47:17;4.00;;;1.35;;
78484;SDS011;67773;50.806;8.776;2023-03-23T02:49:46;2.38;;;0.90;;
78484;SDS011;67773;50.806;8.776;2023-03-23T02:52:17;2.17;;;1.17;;
78484;SDS011;67773;50.806;8.776;2023-03-23T02:54:44;2.55;;;1.25;;
78484;SDS011;67773;50.806;8.776;2023-03-23T02:57:12;5.15;;;1.52;;
78484;SDS011;67773;50.806;8.776;2023-03-23T02:59:38;2.97;;;1.80;;
78484;SDS011;67773;50.806;8.776;2023-03-23T03:02:14;2.53;;;1.50;;
78484;SDS011;67773;50.806;8.776;2023-03-23T03:05:26;2.60;;;1.45;;
78484;SDS011;67773;50.806;8.776;2023-03-23T03:10:18;3.10;;;1.60;;
78484;SDS011;67773;50.806;8.776;2023-03-23T03:13:00;2.42;;;1.48;;
78484;SDS011;67773;50.806;8.776;2023-03-23T03:15:33;3.25;;;1.50;;
78484;SDS011;67773;50.806;8.776;2023-03-23T03:18:15;3.17;;;1.90;;
78484;SDS011;67773;50.806;8.776;2023-03-23T03:20:48;2.60;;;1.30;;
78484;SDS011;67773;50.806;8.776;2023-03-23T03:23:16;4.70;;;1.83;;
78484;SDS011;67773;50.806;8.776;2023-03-23T03:25:42;2.97;;;1.45;;
78484;SDS011;67773;50.806;8.776;2023-03-23T03:28:14;2.75;;;1.40;;
78484;SDS011;67773;50.806;8.776;2023-03-23T03:30:41;2.95;;;1.23;;
78484;SDS011;67773;50.806;8.776;2023-03-23T03:33:09;1.98;;;1.05;;
78484;SDS011;67773;50.806;8.776;2023-03-23T03:35:36;3.20;;;1.50;;
78484;SDS011;67773;50.806;8.776;2023-03-23T03:38:08;2.45;;;1.40;;
78484;SDS011;67773;50.806;8.776;2023-03-23T03:40:35;2.92;;;1.10;;
78484;SDS011;67773;50.806;8.776;2023-03-23T03:43:01;2.35;;;1.27;;
78484;SDS011;67773;50.806;8.776;2023-03-23T03:45:27;1.83;;;1.13;;
78484;SDS011;67773;50.806;8.776;2023-03-23T03:47:52;5.27;;;1.40;;
78484;SDS011;67773;50.806;8.776;2023-03-23T03:50:18;4.30;;;1.10;;
78484;SDS011;67773;50.806;8.776;2023-03-23T03:52:43;2.00;;;1.00;;
78484;SDS011;67773;50.806;8.776;2023-03-23T03:55:09;3.83;;;1.10;;
78484;SDS011;67773;50.806;8.776;2023-03-23T03:57:35;2.63;;;0.93;;
78484;SDS011;67773;50.806;8.776;2023-03-23T04:00:01;3.45;;;1.02;;
78484;SDS011;67773;50.806;8.776;2023-03-23T04:02:37;2.30;;;1.27;;
78484;SDS011;67773;50.806;8.776;2023-03-23T04:05:03;2.92;;;1.20;;
78484;SDS011;67773;50.806;8.776;2023-03-23T04:07:29;3.20;;;1.77;;
78484;SDS011;67773;50.806;8.776;2023-03-23T04:09:54;3.90;;;1.23;;
78484;SDS011;67773;50.806;8.776;2023-03-23T04:12:19;2.08;;;1.00;;
78484;SDS011;67773;50.806;8.776;2023-03-23T04:14:45;2.53;;;1.45;;
78484;SDS011;67773;50.806;8.776;2023-03-23T04:17:10;3.30;;;1.70;;
78484;SDS011;67773;50.806;8.776;2023-03-23T04:19:36;4.80;;;1.30;;
78484;SDS011;67773;50.806;8.776;2023-03-23T04:22:03;1.83;;;1.02;;
78484;SDS011;67773;50.806;8.776;2023-03-23T04:24:29;3.35;;;1.45;;
78484;SDS011;67773;50.806;8.776;2023-03-23T04:26:58;3.67;;;1.40;;
78484;SDS011;67773;50.806;8.776;2023-03-23T04:29:23;3.28;;;1.70;;
78484;SDS011;67773;50.806;8.776;2023-03-23T04:31:49;2.87;;;1.30;;
78484;SDS011;67773;50.806;8.776;2023-03-23T04:34:15;5.82;;;1.80;;
78484;SDS011;67773;50.806;8.776;2023-03-23T04:36:41;3.38;;;1.77;;
78484;SDS011;67773;50.806;8.776;2023-03-23T04:39:07;4.18;;;1.95;;
78484;SDS011;67773;50.806;8.776;2023-03-23T04:41:35;3.08;;;1.58;;
78484;SDS011;67773;50.806;8.776;2023-03-23T04:44:01;4.43;;;1.52;;
78484;SDS011;67773;50.806;8.776;2023-03-23T04:46:27;2.88;;;1.70;;
78484;SDS011;67773;50.806;8.776;2023-03-23T04:48:56;3.80;;;1.70;;
78484;SDS011;67773;50.806;8.776;2023-03-23T04:51:25;4.03;;;1.40;;
78484;SDS011;67773;50.806;8.776;2023-03-23T04:53:51;3.35;;;2.00;;
78484;SDS011;67773;50.806;8.776;2023-03-23T04:56:18;2.45;;;1.55;;
78484;SDS011;67773;50.806;8.776;2023-03-23T04:58:43;7.45;;;3.65;;
78484;SDS011;67773;50.806;8.776;2023-03-23T05:01:09;4.00;;;1.90;;
78484;SDS011;67773;50.806;8.776;2023-03-23T05:03:38;4.45;;;2.58;;
78484;SDS011;67773;50.806;8.776;2023-03-23T05:06:04;8.57;;;3.97;;
78484;SDS011;67773;50.806;8.776;2023-03-23T05:08:30;5.07;;;2.47;;
78484;SDS011;67773;50.806;8.776;2023-03-23T05:10:56;3.88;;;2.40;;
78484;SDS011;67773;50.806;8.776;2023-03-23T05:13:23;4.55;;;1.73;;
78484;SDS011;67773;50.806;8.776;2023-03-23T05:15:48;4.82;;;1.55;;
78484;SDS011;67773;50.806;8.776;2023-03-23T05:18:15;3.05;;;1.30;;
78484;SDS011;67773;50.806;8.776;2023-03-23T05:20:40;3.78;;;1.67;;
78484;SDS011;67773;50.806;8.776;2023-03-23T05:23:07;3.10;;;1.70;;
78484;SDS011;67773;50.806;8.776;2023-03-23T05:25:36;3.38;;;1.48;;
78484;SDS011;67773;50.806;8.776;2023-03-23T05:28:05;2.80;;;1.33;;
78484;SDS011;67773;50.806;8.776;2023-03-23T05:30:37;2.42;;;1.30;;
78484;SDS011;67773;50.806;8.776;2023-03-23T05:33:03;4.15;;;1.63;;
78484;SDS011;67773;50.806;8.776;2023-03-23T05:35:29;2.80;;;1.50;;
78484;SDS011;67773;50.806;8.776;2023-03-23T05:37:55;4.40;;;1.60;;
78484;SDS011;67773;50.806;8.776;2023-03-23T05:40:21;3.40;;;1.25;;
78484;SDS011;67773;50.806;8.776;2023-03-23T05:42:51;3.28;;;1.40;;
78484;SDS011;67773;50.806;8.776;2023-03-23T05:45:18;3.55;;;1.45;;
78484;SDS011;67773;50.806;8.776;2023-03-23T05:47:43;5.28;;;1.55;;
78484;SDS011;67773;50.806;8.776;2023-03-23T05:50:09;3.63;;;1.60;;
78484;SDS011;67773;50.806;8.776;2023-03-23T05:52:35;2.40;;;1.45;;
78484;SDS011;67773;50.806;8.776;2023-03-23T05:55:01;4.32;;;1.50;;
78484;SDS011;67773;50.806;8.776;2023-03-23T05:57:28;3.83;;;1.83;;
78484;SDS011;67773;50.806;8.776;2023-03-23T05:59:54;4.30;;;1.60;;
78484;SDS011;67773;50.806;8.776;2023-03-23T06:02:19;5.00;;;1.70;;
78484;SDS011;67773;50.806;8.776;2023-03-23T06:04:44;5.47;;;1.60;;
78484;SDS011;67773;50.806;8.776;2023-03-23T06:07:09;7.93;;;4.13;;
78484;SDS011;67773;50.806;8.776;2023-03-23T06:09:38;3.25;;;1.48;;
78484;SDS011;67773;50.806;8.776;2023-03-23T06:12:04;4.00;;;1.40;;
78484;SDS011;67773;50.806;8.776;2023-03-23T06:14:29;5.32;;;1.90;;
78484;SDS011;67773;50.806;8.776;2023-03-23T06:16:56;3.67;;;1.80;;
78484;SDS011;67773;50.806;8.776;2023-03-23T06:19:21;4.32;;;1.70;;
78484;SDS011;67773;50.806;8.776;2023-03-23T06:21:47;4.00;;;1.92;;
78484;SDS011;67773;50.806;8.776;2023-03-23T06:24:13;5.93;;;2.22;;
78484;SDS011;67773;50.806;8.776;2023-03-23T06:26:39;4.80;;;2.30;;
78484;SDS011;67773;50.806;8.776;2023-03-23T06:29:06;4.03;;;2.50;;
78484;SDS011;67773;50.806;8.776;2023-03-23T06:31:36;5.78;;;2.67;;
78484;SDS011;67773;50.806;8.776;2023-03-23T06:34:04;4.72;;;2.40;;
78484;SDS011;67773;50.806;8.776;2023-03-23T06:36:30;6.90;;;2.50;;
78484;SDS011;67773;50.806;8.776;2023-03-23T06:38:55;5.53;;;2.93;;
78484;SDS011;67773;50.806;8.776;2023-03-23T06:41:21;5.05;;;3.85;;
78484;SDS011;67773;50.806;8.776;2023-03-23T06:43:46;7.05;;;2.55;;
78484;SDS011;67773;50.806;8.776;2023-03-23T06:46:12;10.93;;;5.20;;
78484;SDS011;67773;50.806;8.776;2023-03-23T06:48:37;9.25;;;3.85;;
78484;SDS011;67773;50.806;8.776;2023-03-23T06:51:03;5.60;;;3.00;;
78484;SDS011;67773;50.806;8.776;2023-03-23T06:53:29;6.03;;;3.50;;
78484;SDS011;67773;50.806;8.776;2023-03-23T06:55:54;4.30;;;2.35;;
78484;SDS011;67773;50.806;8.776;2023-03-23T06:58:21;4.07;;;2.42;;
78484;SDS011;67773;50.806;8.776;2023-03-23T07:00:48;5.80;;;2.33;;
78484;SDS011;67773;50.806;8.776;2023-03-23T07:03:18;3.30;;;1.95;;
78484;SDS011;67773;50.806;8.776;2023-03-23T07:05:45;3.33;;;1.90;;
78484;SDS011;67773;50.806;8.776;2023-03-23T07:08:11;4.13;;;2.50;;
78484;SDS011;67773;50.806;8.776;2023-03-23T07:10:36;3.73;;;2.00;;
78484;SDS011;67773;50.806;8.776;2023-03-23T07:13:02;3.80;;;2.13;;
78484;SDS011;67773;50.806;8.776;2023-03-23T07:15:27;4.80;;;2.10;;
78484;SDS011;67773;50.806;8.776;2023-03-23T07:17:52;6.30;;;2.93;;
78484;SDS011;67773;50.806;8.776;2023-03-23T07:20:19;6.40;;;2.80;;
78484;SDS011;67773;50.806;8.776;2023-03-23T07:22:44;5.53;;;2.30;;
78484;SDS011;67773;50.806;8.776;2023-03-23T07:25:10;4.55;;;1.95;;
78484;SDS011;67773;50.806;8.776;2023-03-23T07:27:36;4.82;;;2.47;;
78484;SDS011;67773;50.806;8.776;2023-03-23T07:30:02;3.97;;;2.50;;
78484;SDS011;67773;50.806;8.776;2023-03-23T07:32:28;3.95;;;2.13;;
78484;SDS011;67773;50.806;8.776;2023-03-23T07:34:53;2.90;;;2.10;;
78484;SDS011;67773;50.806;8.776;2023-03-23T07:37:19;5.63;;;2.40;;
78484;SDS011;67773;50.806;8.776;2023-03-23T07:39:44;3.23;;;1.70;;
78484;SDS011;67773;50.806;8.776;2023-03-23T07:42:10;2.77;;;1.90;;
78484;SDS011;67773;50.806;8.776;2023-03-23T07:44:35;8.13;;;3.20;;
78484;SDS011;67773;50.806;8.776;2023-03-23T07:47:01;3.15;;;1.80;;
78484;SDS011;67773;50.806;8.776;2023-03-23T07:49:27;5.78;;;2.35;;
78484;SDS011;67773;50.806;8.776;2023-03-23T07:51:52;5.47;;;2.63;;
78484;SDS011;67773;50.806;8.776;2023-03-23T07:54:18;3.33;;;1.60;;
78484;SDS011;67773;50.806;8.776;2023-03-23T07:56:43;7.35;;;2.50;;
78484;SDS011;67773;50.806;8.776;2023-03-23T07:59:10;2.63;;;1.67;;
78484;SDS011;67773;50.806;8.776;2023-03-23T08:01:37;2.92;;;1.70;;
78484;SDS011;67773;50.806;8.776;2023-03-23T08:04:03;4.88;;;1.63;;
78484;SDS011;67773;50.806;8.776;2023-03-23T08:06:29;3.77;;;1.50;;
78484;SDS011;67773;50.806;8.776;2023-03-23T08:08:58;4.00;;;1.38;;
78484;SDS011;67773;50.806;8.776;2023-03-23T08:11:24;2.33;;;1.40;;
78484;SDS011;67773;50.806;8.776;2023-03-23T08:13:50;3.08;;;1.45;;
78484;SDS011;67773;50.806;8.776;2023-03-23T08:16:16;2.53;;;1.80;;
78484;SDS011;67773;50.806;8.776;2023-03-23T08:18:41;3.03;;;1.60;;
78484;SDS011;67773;50.806;8.776;2023-03-23T08:21:07;2.65;;;1.40;;
78484;SDS011;67773;50.806;8.776;2023-03-23T08:23:34;2.42;;;1.30;;
78484;SDS011;67773;50.806;8.776;2023-03-23T08:26:01;2.10;;;1.60;;
78484;SDS011;67773;50.806;8.776;2023-03-23T08:28:28;2.97;;;1.50;;
78484;SDS011;67773;50.806;8.776;2023-03-23T08:30:53;3.10;;;1.50;;
78484;SDS011;67773;50.806;8.776;2023-03-23T08:33:19;1.77;;;1.20;;
78484;SDS011;67773;50.806;8.776;2023-03-23T08:35:53;2.58;;;1.40;;
78484;SDS011;67773;50.806;8.776;2023-03-23T08:38:19;3.20;;;1.52;;
78484;SDS011;67773;50.806;8.776;2023-03-23T08:40:46;1.92;;;1.05;;
78484;SDS011;67773;50.806;8.776;2023-03-23T08:43:12;2.30;;;1.40;;
78484;SDS011;67773;50.806;8.776;2023-03-23T08:45:37;2.67;;;1.43;;
78484;SDS011;67773;50.806;8.776;2023-03-23T08:48:03;2.30;;;1.30;;
78484;SDS011;67773;50.806;8.776;2023-03-23T08:50:29;1.73;;;1.20;;
78484;SDS011;67773;50.806;8.776;2023-03-23T08:52:55;4.78;;;1.33;;
78484;SDS011;67773;50.806;8.776;2023-03-23T08:55:21;3.30;;;1.73;;
78484;SDS011;67773;50.806;8.776;2023-03-23T08:57:47;2.25;;;1.23;;
78484;SDS011;67773;50.806;8.776;2023-03-23T09:00:14;1.40;;;0.93;;
78484;SDS011;67773;50.806;8.776;2023-03-23T09:02:43;2.88;;;1.23;;
78484;SDS011;67773;50.806;8.776;2023-03-23T09:05:13;2.30;;;1.00;;
78484;SDS011;67773;50.806;8.776;2023-03-23T09:07:42;2.38;;;1.00;;
78484;SDS011;67773;50.806;8.776;2023-03-23T09:10:09;2.97;;;1.23;;
78484;SDS011;67773;50.806;8.776;2023-03-23T09:12:35;2.28;;;0.90;;
78484;SDS011;67773;50.806;8.776;2023-03-23T09:15:02;4.10;;;1.05;;
78484;SDS011;67773;50.806;8.776;2023-03-23T09:17:33;3.50;;;1.40;;
78484;SDS011;67773;50.806;8.776;2023-03-23T09:20:00;3.03;;;2.00;;
78484;SDS011;67773;50.806;8.776;2023-03-23T09:22:25;3.17;;;1.15;;
78484;SDS011;67773;50.806;8.776;2023-03-23T09:24:51;4.53;;;1.33;;
78484;SDS011;67773;50.806;8.776;2023-03-23T09:27:17;3.17;;;1.20;;
78484;SDS011;67773;50.806;8.776;2023-03-23T09:29:42;1.73;;;1.02;;
78484;SDS011;67773;50.806;8.776;2023-03-23T09:32:09;2.88;;;1.10;;
78484;SDS011;67773;50.806;8.776;2023-03-23T09:34:34;1.55;;;1.00;;
78484;SDS011;67773;50.806;8.776;2023-03-23T09:37:01;1.50;;;0.85;;
78484;SDS011;67773;50.806;8.776;2023-03-23T09:39:29;1.60;;;1.00;;
78484;SDS011;67773;50.806;8.776;2023-03-23T09:42:01;1.60;;;0.70;;
78484;SDS011;67773;50.806;8.776;2023-03-23T09:47:21;1.95;;;0.80;;
78484;SDS011;67773;50.806;8.776;2023-03-23T09:49:57;2.85;;;0.95;;
78484;SDS011;67773;50.806;8.776;2023-03-23T09:52:51;2.30;;;1.00;;
78484;SDS011;67773;50.806;8.776;2023-03-23T09:55:21;2.65;;;1.10;;
78484;SDS011;67773;50.806;8.776;2023-03-23T09:57:52;1.95;;;1.30;;
78484;SDS011;67773;50.806;8.776;2023-03-23T10:00:24;3.03;;;1.27;;
78484;SDS011;67773;50.806;8.776;2023-03-23T10:03:07;1.85;;;1.00;;
78484;SDS011;67773;50.806;8.776;2023-03-23T10:05:44;3.17;;;0.93;;
78484;SDS011;67773;50.806;8.776;2023-03-23T10:08:19;5.03;;;1.50;;
78484;SDS011;67773;50.806;8.776;2023-03-23T10:16:03;3.88;;;0.80;;
78484;SDS011;67773;50.806;8.776;2023-03-23T10:21:14;2.17;;;1.08;;
78484;SDS011;67773;50.806;8.776;2023-03-23T10:24:01;3.95;;;1.95;;
78484;SDS011;67773;50.806;8.776;2023-03-23T10:26:33;2.10;;;1.13;;
78484;SDS011;67773;50.806;8.776;2023-03-23T10:32:04;2.63;;;1.17;;
78484;SDS011;67773;50.806;8.776;2023-03-23T10:37:26;4.32;;;1.40;;
78484;SDS011;67773;50.806;8.776;2023-03-23T10:39:57;3.42;;;1.50;;
78484;SDS011;67773;50.806;8.776;2023-03-23T10:42:31;3.88;;;1.10;;
78484;SDS011;67773;50.806;8.776;2023-03-23T10:45:20;2.13;;;1.50;;
78484;SDS011;67773;50.806;8.776;2023-03-23T10:47:48;3.00;;;1.00;;
78484;SDS011;67773;50.806;8.776;2023-03-23T10:50:21;5.05;;;1.42;;
78484;SDS011;67773;50.806;8.776;2023-03-23T10:52:50;2.03;;;1.60;;
78484;SDS011;67773;50.806;8.776;2023-03-23T10:55:19;3.42;;;1.23;;
78484;SDS011;67773;50.806;8.776;2023-03-23T10:57:58;3.65;;;1.23;;
78484;SDS011;67773;50.806;8.776;2023-03-23T11:00:29;3.25;;;1.00;;
78484;SDS011;67773;50.806;8.776;2023-03-23T11:03:05;2.33;;;1.13;;
78484;SDS011;67773;50.806;8.776;2023-03-23T11:05:53;2.92;;;1.20;;
78484;SDS011;67773;50.806;8.776;2023-03-23T11:08:23;2.25;;;1.00;;
78484;SDS011;67773;50.806;8.776;2023-03-23T11:10:55;1.90;;;1.05;;
78484;SDS011;67773;50.806;8.776;2023-03-23T11:13:26;2.45;;;1.00;;
78484;SDS011;67773;50.806;8.776;2023-03-23T11:15:55;1.77;;;0.90;;
78484;SDS011;67773;50.806;8.776;2023-03-23T11:18:21;1.88;;;1.00;;
78484;SDS011;67773;50.806;8.776;2023-03-23T11:20:49;1.92;;;1.00;;
78484;SDS011;67773;50.806;8.776;2023-03-23T11:23:27;2.70;;;0.90;;
78484;SDS011;67773;50.806;8.776;2023-03-23T11:28:26;2.53;;;1.23;;
78484;SDS011;67773;50.806;8.776;2023-03-23T11:31:03;3.42;;;0.90;;
78484;SDS011;67773;50.806;8.776;2023-03-23T11:33:46;3.03;;;1.17;;
78484;SDS011;67773;50.806;8.776;2023-03-23T11:36:16;4.78;;;2.35;;
78484;SDS011;67773;50.806;8.776;2023-03-23T11:38:42;1.38;;;0.70;;
78484;SDS011;67773;50.806;8.776;2023-03-23T11:41:10;3.20;;;0.90;;
78484;SDS011;67773;50.806;8.776;2023-03-23T11:43:39;3.17;;;1.20;;
78484;SDS011;67773;50.806;8.776;2023-03-23T11:46:14;2.17;;;0.93;;
78484;SDS011;67773;50.806;8.776;2023-03-23T11:51:47;1.77;;;0.90;;
78484;SDS011;67773;50.806;8.776;2023-03-23T11:54:34;2.72;;;1.10;;
78484;SDS011;67773;50.806;8.776;2023-03-23T11:57:08;2.28;;;0.90;;
78484;SDS011;67773;50.806;8.776;2023-03-23T11:59:36;2.85;;;0.95;;
78484;SDS011;67773;50.806;8.776;2023-03-23T12:04:44;1.67;;;0.77;;
78484;SDS011;67773;50.806;8.776;2023-03-23T12:15:25;3.28;;;1.20;;
78484;SDS011;67773;50.806;8.776;2023-03-23T12:23:24;2.90;;;1.05;;
78484;SDS011;67773;50.806;8.776;2023-03-23T12:26:09;1.75;;;0.90;;
78484;SDS011;67773;50.806;8.776;2023-03-23T12:34:04;1.85;;;0.85;;
78484;SDS011;67773;50.806;8.776;2023-03-23T12:36:41;10.70;;;5.95;;
78484;SDS011;67773;50.806;8.776;2023-03-23T12:41:41;1.17;;;0.50;;
78484;SDS011;67773;50.806;8.776;2023-03-23T12:44:14;1.02;;;0.50;;
78484;SDS011;67773;50.806;8.776;2023-03-23T12:46:51;1.27;;;0.47;;
78484;SDS011;67773;50.806;8.776;2023-03-23T12:49:38;1.35;;;0.60;;
78484;SDS011;67773;50.806;8.776;2023-03-23T13:03:28;2.53;;;0.60;;
78484;SDS011;67773;50.806;8.776;2023-03-23T13:11:37;1.60;;;0.88;;
78484;SDS011;67773;50.806;8.776;2023-03-23T13:14:10;1.88;;;0.70;;
78484;SDS011;67773;50.806;8.776;2023-03-23T13:16:56;1.52;;;0.50;;
78484;SDS011;67773;50.806;8.776;2023-03-23T13:25:50;1.63;;;0.40;;
78484;SDS011;67773;50.806;8.776;2023-03-23T13:28:23;1.92;;;0.55;;
78484;SDS011;67773;50.806;8.776;2023-03-23T13:31:13;0.98;;;0.35;;
78484;SDS011;67773;50.806;8.776;2023-03-23T13:33:45;0.93;;;0.57;;
78484;SDS011;67773;50.806;8.776;2023-03-23T13:36:25;1.13;;;0.70;;
78484;SDS011;67773;50.806;8.776;2023-03-23T13:38:53;1.13;;;0.43;;
78484;SDS011;67773;50.806;8.776;2023-03-23T13:41:19;0.85;;;0.45;;
78484;SDS011;67773;50.806;8.776;2023-03-23T13:43:46;1.25;;;0.40;;
78484;SDS011;67773;50.806;8.776;2023-03-23T13:48:48;2.03;;;0.52;;
78484;SDS011;67773;50.806;8.776;2023-03-23T13:51:25;2.40;;;0.47;;
78484;SDS011;67773;50.806;8.776;2023-03-23T13:56:40;1.00;;;0.35;;
78484;SDS011;67773;50.806;8.776;2023-03-23T14:01:42;2.13;;;0.85;;
78484;SDS011;67773;50.806;8.776;2023-03-23T14:04:18;2.03;;;0.55;;
78484;SDS011;67773;50.806;8.776;2023-03-23T14:06:45;1.08;;;0.50;;
78484;SDS011;67773;50.806;8.776;2023-03-23T14:12:00;0.85;;;0.35;;
78484;SDS011;67773;50.806;8.776;2023-03-23T14:14:34;1.40;;;0.50;;
78484;SDS011;67773;50.806;8.776;2023-03-23T14:17:23;2.08;;;0.52;;
78484;SDS011;67773;50.806;8.776;2023-03-23T14:19:52;1.20;;;0.50;;
78484;SDS011;67773;50.806;8.776;2023-03-23T14:22:28;1.13;;;0.40;;
78484;SDS011;67773;50.806;8.776;2023-03-23T14:25:01;0.77;;;0.50;;
78484;SDS011;67773;50.806;8.776;2023-03-23T14:27:38;0.82;;;0.28;;
78484;SDS011;67773;50.806;8.776;2023-03-23T14:30:05;1.45;;;0.40;;
78484;SDS011;67773;50.806;8.776;2023-03-23T14:32:32;0.85;;;0.20;;
78484;SDS011;67773;50.806;8.776;2023-03-23T14:34:59;2.28;;;0.70;;
78484;SDS011;67773;50.806;8.776;2023-03-23T14:37:30;1.77;;;0.40;;
78484;SDS011;67773;50.806;8.776;2023-03-23T14:39:56;1.27;;;0.50;;
78484;SDS011;67773;50.806;8.776;2023-03-23T14:42:30;0.90;;;0.40;;
78484;SDS011;67773;50.806;8.776;2023-03-23T14:44:59;1.02;;;0.40;;
78484;SDS011;67773;50.806;8.776;2023-03-23T14:47:26;0.70;;;0.22;;
78484;SDS011;67773;50.806;8.776;2023-03-23T14:49:56;0.98;;;0.47;;
78484;SDS011;67773;50.806;8.776;2023-03-23T14:52:28;1.58;;;0.30;;
78484;SDS011;67773;50.806;8.776;2023-03-23T14:55:10;1.58;;;0.50;;
78484;SDS011;67773;50.806;8.776;2023-03-23T14:57:40;0.77;;;0.40;;
78484;SDS011;67773;50.806;8.776;2023-03-23T15:00:11;1.42;;;0.73;;
78484;SDS011;67773;50.806;8.776;2023-03-23T15:02:40;1.13;;;0.52;;
78484;SDS011;67773;50.806;8.776;2023-03-23T15:05:11;1.23;;;0.40;;
78484;SDS011;67773;50.806;8.776;2023-03-23T15:08:02;2.67;;;0.47;;
78484;SDS011;67773;50.806;8.776;2023-03-23T15:10:31;1.10;;;0.40;;
78484;SDS011;67773;50.806;8.776;2023-03-23T15:12:57;1.65;;;0.40;;
78484;SDS011;67773;50.806;8.776;2023-03-23T15:15:27;0.60;;;0.30;;
78484;SDS011;67773;50.806;8.776;2023-03-23T15:17:56;0.93;;;0.30;;
78484;SDS011;67773;50.806;8.776;2023-03-23T15:20:32;0.95;;;0.35;;
78484;SDS011;67773;50.806;8.776;2023-03-23T15:23:15;0.60;;;0.30;;
78484;SDS011;67773;50.806;8.776;2023-03-23T15:25:47;1.17;;;0.60;;
78484;SDS011;67773;50.806;8.776;2023-03-23T15:28:19;0.55;;;0.22;;
78484;SDS011;67773;50.806;8.776;2023-03-23T15:30:50;1.20;;;0.30;;
78484;SDS011;67773;50.806;8.776;2023-03-23T15:35:49;1.02;;;0.30;;
78484;SDS011;67773;50.806;8.776;2023-03-23T15:40:52;0.75;;;0.38;;
78484;SDS011;67773;50.806;8.776;2023-03-23T15:45:52;0.63;;;0.30;;
78484;SDS011;67773;50.806;8.776;2023-03-23T15:48:20;1.02;;;0.40;;
78484;SDS011;67773;50.806;8.776;2023-03-23T15:50:47;0.70;;;0.40;;
78484;SDS011;67773;50.806;8.776;2023-03-23T15:56:02;1.83;;;0.80;;
78484;SDS011;67773;50.806;8.776;2023-03-23T15:58:29;1.88;;;0.52;;
78484;SDS011;67773;50.806;8.776;2023-03-23T16:00:56;2.15;;;0.70;;
78484;SDS011;67773;50.806;8.776;2023-03-23T16:03:24;1.20;;;0.60;;
78484;SDS011;67773;50.806;8.776;2023-03-23T16:05:55;1.13;;;0.40;;
78484;SDS011;67773;50.806;8.776;2023-03-23T16:08:23;1.48;;;0.57;;
78484;SDS011;67773;50.806;8.776;2023-03-23T16:10:50;4.75;;;2.58;;
78484;SDS011;67773;50.806;8.776;2023-03-23T16:13:15;8.60;;;4.18;;
78484;SDS011;67773;50.806;8.776;2023-03-23T16:15:41;1.40;;;0.60;;
78484;SDS011;67773;50.806;8.776;2023-03-23T16:18:08;0.85;;;0.50;;
78484;SDS011;67773;50.806;8.776;2023-03-23T16:20:41;2.33;;;0.93;;
78484;SDS011;67773;50.806;8.776;2023-03-23T16:23:06;3.43;;;1.30;;
78484;SDS011;67773;50.806;8.776;2023-03-23T16:25:31;1.23;;;0.53;;
78484;SDS011;67773;50.806;8.776;2023-03-23T16:27:56;1.07;;;0.40;;
78484;SDS011;67773;50.806;8.776;2023-03-23T16:30:23;1.10;;;0.60;;
78484;SDS011;67773;50.806;8.776;2023-03-23T16:32:50;0.90;;;0.60;;
78484;SDS011;67773;50.806;8.776;2023-03-23T16:35:16;1.88;;;0.70;;
78484;SDS011;67773;50.806;8.776;2023-03-23T16:37:45;1.95;;;0.60;;
78484;SDS011;67773;50.806;8.776;2023-03-23T16:40:13;1.75;;;0.70;;
78484;SDS011;67773;50.806;8.776;2023-03-23T16:42:40;1.23;;;0.50;;
78484;SDS011;67773;50.806;8.776;2023-03-23T16:45:05;1.70;;;0.68;;
78484;SDS011;67773;50.806;8.776;2023-03-23T16:47:31;3.30;;;0.80;;